Time;durP1;ratioP1;P1;durP2;ratioP2;P2;SDS_P1;SDS_P2;PMS_P1;PMS_P2;Temp;Humidity;BMP_temperature;BMP_pressure;BME280_temperature;BME280_humidity;BME280_pressure;Samples;Min_cycle;Max_cycle;Signal;HPM_P1;HPM_P2
2022/11/23 00:00:13;;;;;;;1.10;0.70;;;19.70;48.50;;;;;;5074375;28;20470;-54
2022/11/23 00:02:38;;;;;;;1.10;1.00;;;19.70;48.50;;;;;;5061729;28;20042;-54
2022/11/23 00:05:05;;;;;;;1.60;1.00;;;19.60;48.40;;;;;;5074236;28;20039;-55
2022/11/23 00:07:30;;;;;;;0.80;0.80;;;19.60;48.40;;;;;;5076909;28;20036;-55
2022/11/23 00:09:56;;;;;;;0.70;0.60;;;19.60;48.40;;;;;;5073235;28;20546;-54
2022/11/23 00:12:22;;;;;;;1.63;0.98;;;19.60;48.40;;;;;;5072699;28;20624;-53
2022/11/23 00:14:47;;;;;;;1.20;0.80;;;19.60;48.40;;;;;;5072283;28;20044;-55
2022/11/23 00:17:13;;;;;;;0.80;0.80;;;19.60;48.40;;;;;;5073051;28;20407;-55
2022/11/23 00:19:38;;;;;;;1.95;1.02;;;19.50;48.40;;;;;;5074038;28;20036;-53
2022/11/23 00:22:04;;;;;;;1.95;1.02;;;19.60;48.30;;;;;;5079276;28;20082;-53
2022/11/23 00:24:30;;;;;;;1.27;0.80;;;19.60;48.30;;;;;;5072484;28;20040;-54
2022/11/23 00:26:55;;;;;;;1.70;0.80;;;19.60;48.30;;;;;;5079951;28;20068;-55
2022/11/23 00:29:21;;;;;;;1.17;0.68;;;19.50;48.20;;;;;;5076649;28;20044;-53
2022/11/23 00:31:47;;;;;;;0.95;0.68;;;19.50;48.20;;;;;;5072090;28;20040;-55
2022/11/23 00:34:14;;;;;;;1.75;0.80;;;19.50;48.20;;;;;;5074098;28;20204;-54
2022/11/23 00:36:40;;;;;;;1.55;0.90;;;19.50;48.10;;;;;;5057420;28;20054;-55
2022/11/23 00:39:06;;;;;;;1.38;1.00;;;19.50;48.20;;;;;;5072873;28;20036;-55
2022/11/23 00:41:31;;;;;;;0.65;0.63;;;19.50;48.20;;;;;;5075266;28;20032;-55
2022/11/23 00:43:57;;;;;;;0.73;0.73;;;19.50;48.20;;;;;;5079342;28;20064;-55
2022/11/23 00:46:25;;;;;;;1.42;0.95;;;19.50;48.20;;;;;;5072599;28;20484;-55
2022/11/23 00:48:53;;;;;;;1.00;0.90;;;19.50;48.10;;;;;;5074206;28;20039;-56
2022/11/23 00:51:22;;;;;;;1.15;0.85;;;19.50;48.20;;;;;;5070352;28;20094;-58
2022/11/23 00:53:50;;;;;;;1.33;0.90;;;19.50;48.10;;;;;;5074966;28;20076;-56
2022/11/23 00:56:17;;;;;;;0.80;0.80;;;19.50;48.20;;;;;;5073377;28;20051;-56
2022/11/23 00:58:47;;;;;;;2.13;1.00;;;19.50;48.10;;;;;;5072710;28;20097;-55
2022/11/23 01:01:14;;;;;;;1.17;0.90;;;19.40;48.10;;;;;;5073843;28;20041;-55
2022/11/23 01:03:45;;;;;;;1.60;1.05;;;19.50;48.10;;;;;;5075688;28;20422;-54
2022/11/23 01:06:16;;;;;;;1.35;0.80;;;19.40;48.10;;;;;;5075280;28;20115;-56
2022/11/23 01:08:42;;;;;;;0.90;0.70;;;19.40;48.10;;;;;;5075214;28;20089;-55
2022/11/23 01:11:10;;;;;;;1.00;0.80;;;19.40;48.10;;;;;;5076692;28;20075;-55
2022/11/23 01:13:38;;;;;;;0.68;0.68;;;19.40;48.10;;;;;;5073401;28;20036;-53
2022/11/23 01:16:06;;;;;;;1.30;0.70;;;19.40;48.00;;;;;;5070128;28;20033;-55
2022/11/23 01:18:32;;;;;;;2.10;0.70;;;19.40;48.00;;;;;;5062466;28;20488;-55
2022/11/23 01:21:00;;;;;;;1.55;0.80;;;19.40;48.00;;;;;;5072435;28;20051;-56
2022/11/23 01:23:29;;;;;;;1.73;0.80;;;19.40;48.10;;;;;;5073372;28;20137;-58
2022/11/23 01:25:54;;;;;;;0.63;0.63;;;19.40;48.10;;;;;;5075824;28;20036;-55
2022/11/23 01:28:20;;;;;;;0.65;0.65;;;19.40;48.10;;;;;;5078519;28;20132;-54
2022/11/23 01:30:46;;;;;;;1.55;0.98;;;19.40;48.00;;;;;;5074723;28;20066;-58
2022/11/23 01:33:12;;;;;;;0.77;0.75;;;19.40;48.10;;;;;;5072092;28;20078;-58
2022/11/23 01:35:38;;;;;;;0.80;0.68;;;19.40;48.00;;;;;;5074350;28;20410;-54
2022/11/23 01:38:04;;;;;;;1.17;0.80;;;19.40;48.10;;;;;;5075743;28;20036;-57
2022/11/23 01:40:30;;;;;;;1.17;0.70;;;19.40;48.10;;;;;;5078165;28;20036;-56
2022/11/23 01:42:59;;;;;;;1.02;0.73;;;19.40;48.10;;;;;;5072612;28;20361;-53
2022/11/23 01:45:40;;;;;;;0.77;0.55;;;19.40;48.10;;;;;;5075064;28;20067;-53
2022/11/23 01:48:18;;;;;;;0.95;0.73;;;19.30;48.00;;;;;;5074254;28;20080;-53
2022/11/23 01:50:47;;;;;;;1.27;0.70;;;19.30;48.10;;;;;;5076379;28;20040;-53
2022/11/23 01:53:13;;;;;;;1.50;0.70;;;19.30;48.00;;;;;;5074849;28;20464;-55
2022/11/23 01:55:39;;;;;;;0.98;0.70;;;19.30;48.10;;;;;;5074079;28;20064;-55
2022/11/23 01:58:07;;;;;;;1.05;0.70;;;19.30;48.00;;;;;;5079713;28;20476;-54
2022/11/23 02:00:33;;;;;;;1.95;0.82;;;19.30;48.00;;;;;;5076087;28;20042;-58
2022/11/23 02:03:00;;;;;;;0.88;0.65;;;19.30;48.00;;;;;;5079660;28;20044;-54
2022/11/23 02:05:40;;;;;;;1.23;0.60;;;19.30;48.00;;;;;;5078630;28;20041;-55
2022/11/23 02:08:07;;;;;;;1.13;0.70;;;19.30;48.00;;;;;;5077547;28;20039;-56
2022/11/23 02:10:33;;;;;;;2.10;0.75;;;19.30;48.10;;;;;;5076473;28;20055;-54
2022/11/23 02:13:05;;;;;;;1.60;0.60;;;19.30;48.10;;;;;;5079637;28;20506;-54
2022/11/23 02:15:31;;;;;;;1.23;0.90;;;19.20;48.00;;;;;;5074578;28;20032;-54
2022/11/23 02:17:59;;;;;;;1.30;0.60;;;19.30;48.10;;;;;;5075706;28;20114;-55
2022/11/23 02:20:25;;;;;;;1.65;0.93;;;19.30;48.00;;;;;;5078070;28;20047;-53
2022/11/23 02:22:54;;;;;;;1.27;0.60;;;19.20;48.00;;;;;;5079685;28;20468;-55
2022/11/23 02:25:44;;;;;;;0.75;0.63;;;19.30;48.10;;;;;;5060178;28;20585;-53
2022/11/23 02:28:25;;;;;;;0.98;0.60;;;19.20;48.00;;;;;;5074477;28;20078;-54
2022/11/23 02:30:53;;;;;;;0.90;0.73;;;19.30;48.10;;;;;;5075057;28;20506;-55
2022/11/23 02:33:19;;;;;;;0.80;0.80;;;19.20;48.10;;;;;;5078276;28;20043;-57
2022/11/23 02:36:01;;;;;;;1.70;0.93;;;19.20;48.10;;;;;;5093860;28;20037;-54
2022/11/23 02:38:30;;;;;;;1.67;0.90;;;19.20;48.10;;;;;;5074999;28;20131;-54
2022/11/23 02:40:56;;;;;;;0.80;0.80;;;19.20;48.10;;;;;;5076916;28;20476;-57
2022/11/23 02:43:22;;;;;;;1.55;0.98;;;19.20;48.10;;;;;;5076665;28;20044;-55
2022/11/23 02:46:00;;;;;;;1.50;0.82;;;19.20;48.10;;;;;;5075334;28;20039;-53
2022/11/23 02:48:26;;;;;;;0.90;0.82;;;19.20;48.80;;;;;;5081426;28;20582;-55
2022/11/23 02:50:52;;;;;;;1.63;0.80;;;19.20;48.10;;;;;;5075379;28;20090;-54
2022/11/23 02:53:18;;;;;;;1.75;0.85;;;19.20;48.90;;;;;;5073468;28;20131;-57
2022/11/23 02:55:44;;;;;;;1.55;0.90;;;19.20;48.20;;;;;;5073760;28;20048;-53
2022/11/23 02:58:10;;;;;;;1.27;1.05;;;19.20;48.20;;;;;;5080418;28;20032;-53
2022/11/23 03:00:36;;;;;;;0.90;0.90;;;19.20;48.10;;;;;;5076250;28;20032;-54
2022/11/23 03:03:03;;;;;;;1.05;0.80;;;19.20;48.10;;;;;;5075680;28;20052;-55
2022/11/23 03:05:29;;;;;;;1.13;1.00;;;19.10;48.10;;;;;;5075005;28;20032;-55
2022/11/23 03:07:55;;;;;;;0.98;0.80;;;19.20;48.10;;;;;;5074814;28;20059;-55
2022/11/23 03:10:21;;;;;;;1.45;0.90;;;19.10;48.10;;;;;;5080148;28;20044;-53
2022/11/23 03:12:46;;;;;;;1.45;0.85;;;19.10;48.10;;;;;;5078391;28;20064;-55
2022/11/23 03:15:12;;;;;;;1.98;1.20;;;19.10;48.10;;;;;;5073732;28;20043;-55
2022/11/23 03:17:38;;;;;;;0.95;0.90;;;19.10;48.10;;;;;;5077694;28;20036;-54
2022/11/23 03:20:04;;;;;;;1.40;1.02;;;19.10;48.10;;;;;;5076308;28;20057;-55
2022/11/23 03:22:29;;;;;;;1.90;1.10;;;19.10;48.10;;;;;;5079540;28;20111;-54
2022/11/23 03:24:56;;;;;;;2.25;1.13;;;19.10;48.20;;;;;;5073503;28;21382;-55
2022/11/23 03:27:22;;;;;;;1.45;1.17;;;19.10;48.20;;;;;;5074040;28;20052;-54
2022/11/23 03:29:48;;;;;;;1.13;1.02;;;19.10;48.20;;;;;;5074877;28;21404;-54
2022/11/23 03:32:14;;;;;;;1.20;1.00;;;19.10;48.20;;;;;;5060073;28;20040;-52
2022/11/23 03:34:39;;;;;;;2.10;1.50;;;19.10;48.20;;;;;;5074440;28;20031;-54
2022/11/23 03:37:05;;;;;;;1.23;1.10;;;19.10;48.20;;;;;;5072586;28;20353;-53
2022/11/23 03:39:31;;;;;;;1.05;0.95;;;19.10;48.20;;;;;;5071635;28;20136;-55
2022/11/23 03:41:56;;;;;;;1.52;1.23;;;19.10;48.20;;;;;;5069607;28;20051;-55
2022/11/23 03:44:22;;;;;;;1.48;1.13;;;19.10;48.20;;;;;;5073926;28;20089;-56
2022/11/23 03:46:49;;;;;;;1.30;1.00;;;19.00;48.20;;;;;;5072754;28;20075;-54
2022/11/23 03:49:15;;;;;;;1.88;1.25;;;19.10;48.20;;;;;;5079411;28;20039;-54
2022/11/23 03:51:41;;;;;;;1.23;0.98;;;19.00;48.20;;;;;;5072083;28;20028;-54
2022/11/23 03:54:06;;;;;;;1.42;1.05;;;19.10;48.20;;;;;;5074222;28;20032;-55
2022/11/23 03:56:32;;;;;;;1.80;1.38;;;19.00;48.20;;;;;;5076352;28;20036;-57
2022/11/23 03:58:58;;;;;;;2.13;1.10;;;19.00;48.20;;;;;;5075999;28;20127;-55
2022/11/23 04:01:23;;;;;;;1.40;1.13;;;19.00;48.30;;;;;;5082155;28;20039;-54
2022/11/23 04:03:49;;;;;;;1.25;1.13;;;19.00;48.20;;;;;;5076542;28;20044;-53
2022/11/23 04:06:15;;;;;;;1.65;1.30;;;19.00;48.20;;;;;;5070907;28;20037;-54
2022/11/23 04:08:40;;;;;;;1.90;1.25;;;19.00;48.30;;;;;;5061730;28;20055;-54
2022/11/23 04:11:06;;;;;;;1.73;1.33;;;19.00;48.20;;;;;;5058872;28;20052;-55
2022/11/23 04:13:32;;;;;;;2.05;1.50;;;19.00;48.30;;;;;;5073057;28;20046;-54
2022/11/23 04:15:57;;;;;;;0.98;0.90;;;19.00;48.30;;;;;;5060139;28;20044;-56
2022/11/23 04:18:23;;;;;;;2.00;1.13;;;19.00;48.30;;;;;;5077222;28;20048;-56
2022/11/23 04:20:49;;;;;;;1.85;1.08;;;19.00;48.30;;;;;;5079724;28;20036;-55
2022/11/23 04:23:14;;;;;;;1.50;1.30;;;19.00;48.30;;;;;;5077501;28;20040;-56
2022/11/23 04:25:40;;;;;;;1.33;1.23;;;19.00;48.30;;;;;;5066651;28;20044;-55
2022/11/23 04:28:06;;;;;;;1.25;1.15;;;19.00;48.20;;;;;;5068443;28;20040;-55
2022/11/23 04:30:31;;;;;;;1.85;1.40;;;19.00;48.30;;;;;;5075374;28;20044;-53
2022/11/23 04:32:57;;;;;;;1.13;0.90;;;19.00;48.30;;;;;;5071877;28;20044;-55
2022/11/23 04:35:22;;;;;;;2.00;1.30;;;18.90;48.30;;;;;;5077958;28;20060;-53
2022/11/23 04:37:48;;;;;;;1.08;0.98;;;18.90;48.30;;;;;;5073232;28;20546;-53
2022/11/23 04:40:14;;;;;;;2.25;1.23;;;19.00;48.30;;;;;;5077935;28;20028;-55
2022/11/23 04:42:39;;;;;;;1.63;1.20;;;18.90;48.20;;;;;;5072500;28;20043;-55
2022/11/23 04:45:06;;;;;;;1.20;1.10;;;18.90;48.30;;;;;;5073041;28;20058;-53
2022/11/23 04:47:31;;;;;;;2.17;1.52;;;18.90;48.20;;;;;;5074481;28;20131;-57
2022/11/23 04:49:57;;;;;;;1.48;1.30;;;18.90;48.20;;;;;;5070562;28;20178;-53
2022/11/23 04:52:23;;;;;;;1.70;1.25;;;18.90;48.20;;;;;;5075222;28;20059;-54
2022/11/23 04:54:48;;;;;;;1.75;1.20;;;18.90;48.30;;;;;;5075974;28;20127;-53
2022/11/23 04:57:14;;;;;;;1.75;1.55;;;18.90;48.30;;;;;;5072060;28;20063;-53
2022/11/23 04:59:39;;;;;;;1.80;1.25;;;18.90;48.20;;;;;;5072012;28;20036;-53
2022/11/23 05:02:05;;;;;;;2.80;1.45;;;18.90;48.20;;;;;;5082680;28;20038;-55
2022/11/23 05:04:33;;;;;;;2.63;1.25;;;18.90;48.30;;;;;;5073303;28;20354;-56
2022/11/23 05:06:59;;;;;;;1.85;1.10;;;18.90;48.30;;;;;;5074673;28;20473;-55
2022/11/23 05:09:24;;;;;;;2.22;1.13;;;18.90;48.30;;;;;;5075921;28;20059;-55
2022/11/23 05:11:50;;;;;;;1.90;1.20;;;18.90;48.30;;;;;;5074946;28;20140;-55
2022/11/23 05:14:16;;;;;;;1.52;1.33;;;18.90;48.30;;;;;;5070883;28;20040;-53
2022/11/23 05:16:41;;;;;;;2.08;1.40;;;18.90;48.30;;;;;;5072919;28;20079;-56
2022/11/23 05:19:07;;;;;;;1.70;1.20;;;18.80;49.00;;;;;;5083950;28;20483;-55
2022/11/23 05:21:33;;;;;;;1.33;1.20;;;18.90;48.30;;;;;;5075521;28;20040;-53
2022/11/23 05:23:58;;;;;;;1.73;1.33;;;18.80;48.40;;;;;;5077535;28;20040;-54
2022/11/23 05:26:24;;;;;;;2.00;1.10;;;18.80;48.20;;;;;;5079810;28;20051;-54
2022/11/23 05:28:50;;;;;;;1.15;1.05;;;18.90;48.30;;;;;;5076782;28;20354;-57
2022/11/23 05:31:16;;;;;;;1.73;1.30;;;18.80;48.30;;;;;;5079250;28;20040;-55
2022/11/23 05:33:41;;;;;;;1.25;1.10;;;18.80;48.20;;;;;;5080337;28;20043;-54
2022/11/23 05:36:08;;;;;;;1.63;1.23;;;18.90;48.30;;;;;;5062588;28;20090;-55
2022/11/23 05:38:34;;;;;;;1.52;1.15;;;18.80;48.30;;;;;;5077232;28;20037;-58
2022/11/23 05:40:59;;;;;;;1.30;0.90;;;18.80;48.20;;;;;;5091795;28;20044;-59
2022/11/23 05:43:25;;;;;;;1.33;1.08;;;18.80;48.20;;;;;;5079169;28;20043;-55
2022/11/23 05:45:50;;;;;;;1.65;1.00;;;18.80;48.30;;;;;;5079039;28;20076;-56
2022/11/23 05:48:16;;;;;;;1.40;1.10;;;18.80;48.20;;;;;;5067529;28;20420;-55
2022/11/23 05:50:42;;;;;;;1.50;1.00;;;18.80;48.30;;;;;;5095786;28;20376;-54
2022/11/23 05:53:08;;;;;;;0.90;0.85;;;18.80;48.30;;;;;;5080604;28;20123;-55
2022/11/23 05:55:34;;;;;;;1.25;0.90;;;18.90;48.30;;;;;;5078273;28;20036;-53
2022/11/23 05:58:00;;;;;;;1.30;0.98;;;18.80;48.20;;;;;;5078774;28;20536;-53
2022/11/23 06:00:25;;;;;;;2.40;1.00;;;18.90;48.30;;;;;;5074942;28;20041;-55
2022/11/23 06:02:51;;;;;;;1.52;0.90;;;18.80;48.20;;;;;;5076671;28;20040;-55
2022/11/23 06:05:17;;;;;;;2.65;1.15;;;18.80;48.30;;;;;;5083860;28;20040;-54
2022/11/23 06:07:42;;;;;;;1.75;1.13;;;18.80;48.20;;;;;;5074070;28;20102;-54
2022/11/23 06:10:09;;;;;;;1.45;0.95;;;18.80;48.20;;;;;;5075811;28;20129;-53
2022/11/23 06:12:35;;;;;;;3.28;1.27;;;18.80;48.20;;;;;;5076335;28;20060;-53
2022/11/23 06:15:01;;;;;;;2.05;0.93;;;18.80;48.20;;;;;;5072173;28;20056;-55
2022/11/23 06:17:26;;;;;;;1.45;1.27;;;18.80;48.20;;;;;;5082949;28;20055;-55
2022/11/23 06:19:52;;;;;;;1.67;0.90;;;18.80;48.20;;;;;;5061164;28;20041;-53
2022/11/23 06:22:17;;;;;;;2.03;0.85;;;18.80;48.10;;;;;;5074550;28;20384;-55
2022/11/23 06:24:43;;;;;;;1.20;0.98;;;18.70;48.10;;;;;;5074015;28;20040;-53
2022/11/23 06:27:09;;;;;;;1.30;1.02;;;18.80;48.10;;;;;;5080212;28;20434;-55
2022/11/23 06:29:34;;;;;;;2.35;1.15;;;18.70;48.10;;;;;;5074098;28;20055;-54
2022/11/23 06:32:00;;;;;;;1.73;0.85;;;18.80;48.10;;;;;;5077482;28;20036;-53
2022/11/23 06:34:25;;;;;;;1.95;1.10;;;18.70;48.00;;;;;;5072506;28;20041;-54
2022/11/23 06:36:51;;;;;;;1.60;0.90;;;18.70;48.10;;;;;;5079018;28;20036;-52
2022/11/23 06:39:17;;;;;;;3.85;0.88;;;18.70;48.10;;;;;;5072446;28;20059;-54
2022/11/23 06:41:43;;;;;;;1.25;1.08;;;18.70;48.10;;;;;;5071753;28;20035;-54
2022/11/23 06:44:09;;;;;;;2.90;1.20;;;18.70;48.20;;;;;;5078000;28;20070;-55
2022/11/23 06:46:34;;;;;;;2.17;1.25;;;18.70;48.10;;;;;;5062606;28;20047;-56
2022/11/23 06:49:00;;;;;;;2.90;1.23;;;18.70;48.10;;;;;;5079750;28;20353;-54
2022/11/23 06:51:26;;;;;;;3.22;0.90;;;18.70;48.20;;;;;;5078770;28;20044;-53
2022/11/23 06:53:51;;;;;;;5.47;1.00;;;18.70;48.10;;;;;;5080047;28;20036;-55
2022/11/23 06:56:17;;;;;;;2.05;1.17;;;18.70;48.20;;;;;;5075039;28;20028;-55
2022/11/23 06:58:45;;;;;;;2.05;0.95;;;18.70;48.20;;;;;;5073974;28;20044;-57
2022/11/23 07:01:11;;;;;;;1.58;0.90;;;18.70;48.20;;;;;;5077813;28;20044;-56
2022/11/23 07:03:37;;;;;;;1.40;1.00;;;18.70;48.20;;;;;;5079292;28;20082;-54
2022/11/23 07:06:07;;;;;;;2.95;1.10;;;18.60;48.10;;;;;;5078878;28;20040;-53
2022/11/23 07:08:34;;;;;;;2.03;0.97;;;18.70;48.20;;;;;;5078809;28;20498;-52
2022/11/23 07:11:05;;;;;;;1.17;0.80;;;18.70;48.20;;;;;;5073116;28;20314;-57
2022/11/23 07:13:31;;;;;;;1.65;0.90;;;18.70;48.20;;;;;;5078903;28;20383;-57
2022/11/23 07:15:58;;;;;;;1.58;0.90;;;18.70;48.10;;;;;;5077556;28;20135;-51
2022/11/23 07:18:24;;;;;;;3.10;1.08;;;18.60;48.10;;;;;;5077161;28;20472;-54
2022/11/23 07:20:50;;;;;;;3.05;1.08;;;18.60;48.20;;;;;;5076102;28;20094;-52
2022/11/23 07:23:16;;;;;;;2.30;1.40;;;18.60;48.30;;;;;;5082551;28;20036;-58
2022/11/23 07:25:42;;;;;;;2.63;0.95;;;18.60;49.20;;;;;;5073553;28;20047;-54
2022/11/23 07:28:09;;;;;;;2.85;1.27;;;18.60;48.50;;;;;;5078425;28;20028;-54
2022/11/23 07:30:35;;;;;;;3.58;1.10;;;18.60;48.60;;;;;;5070848;28;20128;-54
2022/11/23 07:33:07;;;;;;;3.00;1.13;;;18.90;48.80;;;;;;5073507;28;20429;-51
2022/11/23 07:35:33;;;;;;;1.35;0.90;;;19.50;48.10;;;;;;5070040;28;20064;-53
2022/11/23 07:37:59;;;;;;;2.20;1.20;;;20.20;46.80;;;;;;5059652;28;20035;-54
2022/11/23 07:40:26;;;;;;;1.85;1.10;;;20.90;45.50;;;;;;5077579;28;20051;-52
2022/11/23 07:42:52;;;;;;;2.28;1.00;;;21.50;44.40;;;;;;5073682;28;20044;-52
2022/11/23 07:45:17;;;;;;;2.40;1.20;;;21.90;43.60;;;;;;5074329;28;20037;-52
2022/11/23 07:47:44;;;;;;;4.47;1.27;;;22.00;43.30;;;;;;5072310;28;20040;-57
2022/11/23 07:50:11;;;;;;;14.65;1.65;;;22.00;43.40;;;;;;5079693;28;20047;-57
2022/11/23 07:52:39;;;;;;;13.57;1.77;;;21.90;43.60;;;;;;5075211;28;20044;-53
2022/11/23 07:55:05;;;;;;;15.70;1.52;;;21.90;43.80;;;;;;5077858;28;20036;-52
2022/11/23 07:57:31;;;;;;;9.65;1.50;;;21.80;43.80;;;;;;5064722;28;20503;-52
2022/11/23 07:59:57;;;;;;;5.63;1.20;;;21.80;44.00;;;;;;5076795;28;20070;-54
2022/11/23 08:02:22;;;;;;;12.00;1.83;;;21.60;44.20;;;;;;5075805;28;20115;-52
2022/11/23 08:04:48;;;;;;;12.02;1.30;;;21.40;44.70;;;;;;5072305;28;20044;-53
2022/11/23 08:07:14;;;;;;;11.00;1.92;;;21.30;45.00;;;;;;5079290;28;20043;-53
2022/11/23 08:09:39;;;;;;;14.68;1.67;;;21.20;45.30;;;;;;5076179;28;20028;-52
2022/11/23 08:12:05;;;;;;;6.10;1.02;;;21.20;45.50;;;;;;5077695;28;20074;-54
2022/11/23 08:14:31;;;;;;;7.15;1.10;;;21.10;45.80;;;;;;5070910;28;20118;-54
2022/11/23 08:16:57;;;;;;;4.68;1.42;;;21.10;45.90;;;;;;5079342;28;20072;-53
2022/11/23 08:19:22;;;;;;;8.30;1.50;;;21.10;46.00;;;;;;5074578;28;20199;-53
2022/11/23 08:21:48;;;;;;;4.55;1.23;;;21.10;46.00;;;;;;5082602;28;20384;-54
2022/11/23 08:24:14;;;;;;;4.22;1.20;;;21.10;46.00;;;;;;5075483;28;20692;-53
2022/11/23 08:26:39;;;;;;;5.90;1.23;;;21.10;46.20;;;;;;5077213;28;20123;-53
2022/11/23 08:29:05;;;;;;;4.43;1.35;;;21.10;46.30;;;;;;5075345;28;20047;-53
2022/11/23 08:31:31;;;;;;;5.03;1.30;;;21.10;46.50;;;;;;5072882;28;20111;-56
2022/11/23 08:33:58;;;;;;;4.57;1.20;;;21.10;46.70;;;;;;5077894;28;20287;-53
2022/11/23 08:36:24;;;;;;;5.32;1.20;;;21.10;46.80;;;;;;5073216;28;20040;-53
2022/11/23 08:38:50;;;;;;;2.55;1.30;;;21.10;47.00;;;;;;5074584;28;20048;-52
2022/11/23 08:41:20;;;;;;;4.53;1.30;;;21.10;47.00;;;;;;5073515;28;20158;-54
2022/11/23 08:43:49;;;;;;;3.85;1.40;;;21.10;47.00;;;;;;5076087;28;20488;-52
2022/11/23 08:46:16;;;;;;;4.70;1.45;;;21.10;47.00;;;;;;5060336;28;20384;-53
2022/11/23 08:48:42;;;;;;;6.93;1.48;;;21.20;47.10;;;;;;5072835;28;20132;-54
2022/11/23 08:51:08;;;;;;;3.88;1.65;;;21.20;47.10;;;;;;5070191;28;20119;-52
2022/11/23 08:53:34;;;;;;;4.57;1.23;;;21.20;47.10;;;;;;5076591;28;20142;-52
2022/11/23 08:56:01;;;;;;;3.10;1.30;;;21.20;47.10;;;;;;5077275;28;20131;-53
2022/11/23 08:58:27;;;;;;;5.55;1.73;;;21.20;47.10;;;;;;5075338;28;20055;-54
2022/11/23 09:00:53;;;;;;;6.35;1.52;;;21.20;47.00;;;;;;5075836;28;20028;-52
2022/11/23 09:03:19;;;;;;;4.07;1.27;;;21.20;47.10;;;;;;5078473;28;20036;-54
2022/11/23 09:05:45;;;;;;;3.13;1.27;;;21.20;47.20;;;;;;5058631;28;20130;-54
2022/11/23 09:08:10;;;;;;;6.95;1.83;;;21.20;47.20;;;;;;5078261;28;20056;-52
2022/11/23 09:10:37;;;;;;;3.78;1.38;;;21.20;47.30;;;;;;5081646;28;20024;-52
2022/11/23 09:13:03;;;;;;;4.05;1.40;;;21.20;48.10;;;;;;5077614;28;20798;-53
2022/11/23 09:15:29;;;;;;;5.75;1.65;;;21.20;47.40;;;;;;5079938;28;20037;-54
2022/11/23 09:17:58;;;;;;;4.57;1.52;;;21.20;47.60;;;;;;5075922;28;20097;-56
2022/11/23 09:20:24;;;;;;;5.65;1.60;;;21.20;48.00;;;;;;5077577;28;20058;-53
2022/11/23 09:22:54;;;;;;;6.70;1.70;;;21.30;48.20;;;;;;5079476;28;20029;-56
2022/11/23 09:25:20;;;;;;;4.05;1.40;;;21.30;48.30;;;;;;5075347;28;20036;-53
2022/11/23 09:27:47;;;;;;;4.55;1.70;;;21.30;48.30;;;;;;5077007;28;20041;-54
2022/11/23 09:30:13;;;;;;;5.60;1.70;;;21.30;48.40;;;;;;5075702;28;20072;-54
2022/11/23 09:32:39;;;;;;;5.28;1.70;;;21.30;48.30;;;;;;5076741;28;20131;-55
2022/11/23 09:35:06;;;;;;;6.03;1.98;;;21.30;48.30;;;;;;5075537;28;20044;-53
2022/11/23 09:37:31;;;;;;;5.13;1.77;;;21.30;48.30;;;;;;5075483;28;20387;-54
2022/11/23 09:39:57;;;;;;;3.85;1.50;;;21.30;48.30;;;;;;5078124;28;20032;-55
2022/11/23 09:42:31;;;;;;;6.65;1.88;;;21.40;48.50;;;;;;5088873;28;20048;-54
2022/11/23 09:45:29;;;;;;;3.80;1.58;;;21.40;48.50;;;;;;5096039;28;20376;-55
2022/11/23 09:48:38;;;;;;;3.58;1.60;;;21.40;48.60;;;;;;5096809;28;20122;-55
2022/11/23 09:51:16;;;;;;;3.92;1.60;;;21.40;48.60;;;;;;5096570;28;20372;-54
2022/11/23 09:53:45;;;;;;;3.65;1.50;;;21.30;48.40;;;;;;5097307;28;20040;-55
2022/11/23 09:56:17;;;;;;;3.85;1.33;;;21.30;48.40;;;;;;5095378;28;20048;-54
2022/11/23 09:58:44;;;;;;;3.35;1.67;;;21.40;48.50;;;;;;5097230;28;20039;-52
2022/11/23 10:01:16;;;;;;;3.42;1.60;;;21.40;48.30;;;;;;5096195;28;20472;-53
2022/11/23 10:03:44;;;;;;;5.07;1.58;;;21.40;48.20;;;;;;5096493;28;20036;-54
2022/11/23 10:06:24;;;;;;;5.80;1.55;;;21.40;48.30;;;;;;5095232;28;20043;-54
2022/11/23 10:09:24;;;;;;;4.55;1.30;;;21.40;48.00;;;;;;5096162;28;20132;-53
2022/11/23 10:11:53;;;;;;;6.15;1.80;;;21.40;48.10;;;;;;5079918;28;20036;-52
2022/11/23 10:14:41;;;;;;;3.50;1.48;;;21.30;48.00;;;;;;5075628;28;20040;-55
2022/11/23 10:17:16;;;;;;;4.68;1.67;;;21.40;48.00;;;;;;5076584;28;20036;-67
2022/11/23 10:19:56;;;;;;;5.95;1.50;;;21.30;48.00;;;;;;5088246;28;20053;-55
2022/11/23 10:22:58;;;;;;;6.25;1.48;;;21.40;47.80;;;;;;5096305;28;20101;-54
2022/11/23 10:25:38;;;;;;;4.07;1.58;;;21.30;47.60;;;;;;5084019;28;20047;-53
2022/11/23 10:28:18;;;;;;;4.55;1.48;;;21.30;48.50;;;;;;5100379;28;20043;-53
2022/11/23 10:31:12;;;;;;;5.57;1.50;;;21.30;47.70;;;;;;5096208;28;20089;-55
2022/11/23 10:34:08;;;;;;;3.90;1.80;;;21.30;47.50;;;;;;5103564;28;20040;-55
2022/11/23 10:36:37;;;;;;;8.18;2.15;;;21.30;47.60;;;;;;5096539;28;20524;-53
2022/11/23 10:39:23;;;;;;;3.75;1.80;;;21.40;47.60;;;;;;5098975;28;20133;-56
2022/11/23 10:41:59;;;;;;;5.78;1.90;;;21.40;47.80;;;;;;5096874;28;20040;-54
2022/11/23 10:44:30;;;;;;;7.57;2.08;;;21.40;47.70;;;;;;5077142;28;20051;-54
2022/11/23 10:46:57;;;;;;;10.70;2.38;;;21.30;47.80;;;;;;5069834;28;20044;-53
2022/11/23 10:49:34;;;;;;;9.60;1.77;;;21.20;48.00;;;;;;5073555;28;20089;-53
2022/11/23 10:52:02;;;;;;;4.93;1.90;;;21.20;48.20;;;;;;5074686;28;20040;-51
2022/11/23 10:54:50;;;;;;;8.48;2.20;;;21.20;48.30;;;;;;5065157;28;20059;-55
2022/11/23 10:57:32;;;;;;;10.65;2.17;;;21.20;48.40;;;;;;5077780;28;20075;-56
2022/11/23 11:00:00;;;;;;;5.30;1.85;;;21.20;48.50;;;;;;5073583;28;20709;-56
2022/11/23 11:02:27;;;;;;;6.25;1.80;;;21.20;48.50;;;;;;5055778;28;20054;-55
2022/11/23 11:05:30;;;;;;;5.20;1.70;;;21.10;48.50;;;;;;5056515;28;20040;-57
2022/11/23 11:08:19;;;;;;;6.72;1.90;;;21.10;48.60;;;;;;5081168;28;20380;-54
2022/11/23 11:10:55;;;;;;;7.10;1.65;;;21.10;48.60;;;;;;5072196;28;20124;-52
2022/11/23 11:13:26;;;;;;;3.88;1.77;;;21.10;48.60;;;;;;5071738;28;20421;-53
2022/11/23 11:15:55;;;;;;;5.88;2.00;;;21.10;48.60;;;;;;5052350;28;20041;-53
2022/11/23 11:18:23;;;;;;;6.20;1.83;;;21.10;48.70;;;;;;5073177;28;20055;-53
2022/11/23 11:20:56;;;;;;;6.88;2.20;;;21.10;48.70;;;;;;5077313;28;20085;-53
2022/11/23 11:23:23;;;;;;;5.05;1.80;;;21.10;48.70;;;;;;5073500;28;20028;-55
2022/11/23 11:26:00;;;;;;;5.57;2.00;;;21.10;48.70;;;;;;5059780;28;20384;-49
2022/11/23 11:28:37;;;;;;;5.20;1.70;;;21.20;48.70;;;;;;5074561;28;20508;-57
2022/11/23 11:31:24;;;;;;;6.90;1.77;;;21.20;48.80;;;;;;5055364;28;20047;-52
2022/11/23 11:34:28;;;;;;;5.05;1.83;;;21.20;48.70;;;;;;5073769;28;20048;-52
2022/11/23 11:37:12;;;;;;;4.70;1.67;;;21.20;48.60;;;;;;5071630;28;20043;-53
2022/11/23 11:40:06;;;;;;;4.20;2.00;;;21.20;48.70;;;;;;5071238;28;20039;-56
2022/11/23 11:42:44;;;;;;;3.95;1.23;;;21.20;49.00;;;;;;5071597;28;20480;-56
2022/11/23 11:45:23;;;;;;;3.72;1.70;;;21.20;49.10;;;;;;5074125;28;20043;-58
2022/11/23 11:48:14;;;;;;;4.97;1.60;;;21.20;49.00;;;;;;5071324;28;20087;-52
2022/11/23 11:51:05;;;;;;;7.93;1.60;;;21.20;49.00;;;;;;5074195;28;20059;-50
2022/11/23 11:53:45;;;;;;;11.50;2.40;;;21.20;48.90;;;;;;5068726;28;20115;-53
2022/11/23 11:56:48;;;;;;;8.40;1.60;;;21.20;49.70;;;;;;5070606;28;20420;-58
2022/11/23 11:59:25;;;;;;;5.05;1.70;;;21.20;49.00;;;;;;5068914;28;20297;-55
2022/11/23 12:01:53;;;;;;;7.97;1.70;;;21.20;49.00;;;;;;5072534;28;20028;-53
2022/11/23 12:04:47;;;;;;;7.35;1.92;;;21.20;49.10;;;;;;5071510;28;20048;-53
2022/11/23 12:07:34;;;;;;;3.45;1.40;;;21.20;49.00;;;;;;5076101;28;20066;-53
2022/11/23 12:10:40;;;;;;;2.65;1.40;;;21.10;49.00;;;;;;5072628;28;20059;-52
2022/11/23 12:13:37;;;;;;;4.53;1.58;;;21.20;48.90;;;;;;5081403;28;20032;-55
2022/11/23 12:16:26;;;;;;;4.07;1.50;;;21.20;48.70;;;;;;5052133;28;20456;-54
2022/11/23 12:19:26;;;;;;;5.40;1.73;;;21.20;48.70;;;;;;5076218;28;20341;-55
2022/11/23 12:22:30;;;;;;;3.60;1.50;;;21.20;48.60;;;;;;5068853;28;20028;-55
2022/11/23 12:25:14;;;;;;;3.15;1.17;;;21.20;48.50;;;;;;5075973;28;20028;-53
2022/11/23 12:27:46;;;;;;;3.95;1.45;;;21.10;48.60;;;;;;5070123;28;20094;-53
2022/11/23 12:30:27;;;;;;;3.72;1.40;;;21.00;48.60;;;;;;5073641;28;20060;-53
2022/11/23 12:33:05;;;;;;;3.85;1.40;;;21.10;48.50;;;;;;5073505;28;20121;-53
2022/11/23 12:36:09;;;;;;;3.13;1.42;;;21.10;48.50;;;;;;5076404;28;20404;-54
2022/11/23 12:38:54;;;;;;;3.90;1.30;;;21.10;48.30;;;;;;5076960;28;20471;-52
2022/11/23 12:41:57;;;;;;;3.72;1.33;;;21.10;48.30;;;;;;5068997;28;20044;-52
2022/11/23 12:44:41;;;;;;;6.35;1.70;;;21.10;48.00;;;;;;5075111;28;20135;-53
2022/11/23 12:47:26;;;;;;;5.55;1.40;;;21.20;48.00;;;;;;5072412;28;20126;-55
2022/11/23 12:50:12;;;;;;;4.10;1.60;;;21.10;48.00;;;;;;5074564;28;20039;-54
2022/11/23 12:52:59;;;;;;;5.25;1.27;;;21.00;48.20;;;;;;5062973;28;20048;-53
2022/11/23 12:55:36;;;;;;;3.85;1.35;;;21.00;48.50;;;;;;5070713;28;20489;-55
2022/11/23 12:58:16;;;;;;;4.75;1.25;;;21.00;48.40;;;;;;5078603;28;20032;-53
2022/11/23 13:01:00;;;;;;;6.13;1.67;;;21.00;48.60;;;;;;5073031;28;20481;-53